sensor_id;sensor_type;location;lat;lon;timestamp;P1;durP1;ratioP1;P2;durP2;ratioP2
27921;SDS011;15261;50.356;10.340;2024-03-06T00:05:39;19.77;;;16.52;;
27921;SDS011;15261;50.356;10.340;2024-03-06T00:08:05;18.17;;;14.82;;
27921;SDS011;15261;50.356;10.340;2024-03-06T00:10:31;20.75;;;16.05;;
27921;SDS011;15261;50.356;10.340;2024-03-06T00:12:57;18.55;;;15.32;;
27921;SDS011;15261;50.356;10.340;2024-03-06T00:15:22;19.40;;;15.80;;
27921;SDS011;15261;50.356;10.340;2024-03-06T00:17:48;20.67;;;15.27;;
27921;SDS011;15261;50.356;10.340;2024-03-06T00:20:14;19.55;;;15.48;;
27921;SDS011;15261;50.356;10.340;2024-03-06T00:22:40;19.52;;;14.95;;
27921;SDS011;15261;50.356;10.340;2024-03-06T00:25:05;20.85;;;15.73;;
27921;SDS011;15261;50.356;10.340;2024-03-06T00:27:31;19.65;;;15.10;;
27921;SDS011;15261;50.356;10.340;2024-03-06T00:29:57;20.83;;;15.73;;
27921;SDS011;15261;50.356;10.340;2024-03-06T00:32:22;21.35;;;15.98;;
27921;SDS011;15261;50.356;10.340;2024-03-06T00:34:48;20.67;;;15.30;;
27921;SDS011;15261;50.356;10.340;2024-03-06T00:37:14;21.05;;;15.52;;
27921;SDS011;15261;50.356;10.340;2024-03-06T00:45:51;17.38;;;13.27;;
27921;SDS011;15261;50.356;10.340;2024-03-06T00:48:17;17.05;;;13.15;;
27921;SDS011;15261;50.356;10.340;2024-03-06T00:50:45;17.73;;;14.07;;
27921;SDS011;15261;50.356;10.340;2024-03-06T00:53:10;18.92;;;14.32;;
27921;SDS011;15261;50.356;10.340;2024-03-06T00:55:36;15.85;;;12.95;;
27921;SDS011;15261;50.356;10.340;2024-03-06T00:58:02;18.25;;;14.63;;
27921;SDS011;15261;50.356;10.340;2024-03-06T01:00:27;20.98;;;15.45;;
27921;SDS011;15261;50.356;10.340;2024-03-06T01:02:54;26.42;;;17.52;;
27921;SDS011;15261;50.356;10.340;2024-03-06T01:05:19;25.08;;;17.60;;
27921;SDS011;15261;50.356;10.340;2024-03-06T01:07:45;22.20;;;16.02;;
27921;SDS011;15261;50.356;10.340;2024-03-06T01:10:10;19.88;;;15.20;;
27921;SDS011;15261;50.356;10.340;2024-03-06T01:12:36;17.33;;;13.82;;
27921;SDS011;15261;50.356;10.340;2024-03-06T01:15:02;21.13;;;15.02;;
27921;SDS011;15261;50.356;10.340;2024-03-06T01:17:28;20.17;;;15.02;;
27921;SDS011;15261;50.356;10.340;2024-03-06T01:19:54;21.33;;;15.63;;
27921;SDS011;15261;50.356;10.340;2024-03-06T01:22:20;21.52;;;15.98;;
27921;SDS011;15261;50.356;10.340;2024-03-06T01:27:34;19.33;;;14.82;;
27921;SDS011;15261;50.356;10.340;2024-03-06T01:30:00;20.20;;;14.45;;
27921;SDS011;15261;50.356;10.340;2024-03-06T01:32:25;15.85;;;13.80;;
27921;SDS011;15261;50.356;10.340;2024-03-06T01:34:51;17.77;;;14.18;;
27921;SDS011;15261;50.356;10.340;2024-03-06T01:37:16;17.98;;;13.27;;
27921;SDS011;15261;50.356;10.340;2024-03-06T01:39:42;18.65;;;14.20;;
27921;SDS011;15261;50.356;10.340;2024-03-06T01:42:07;17.55;;;13.52;;
27921;SDS011;15261;50.356;10.340;2024-03-06T01:44:33;18.15;;;14.25;;
27921;SDS011;15261;50.356;10.340;2024-03-06T01:46:58;16.63;;;12.68;;
27921;SDS011;15261;50.356;10.340;2024-03-06T01:49:24;17.77;;;13.07;;
27921;SDS011;15261;50.356;10.340;2024-03-06T01:51:55;18.48;;;13.27;;
27921;SDS011;15261;50.356;10.340;2024-03-06T01:54:23;16.60;;;12.30;;
27921;SDS011;15261;50.356;10.340;2024-03-06T01:56:49;17.65;;;13.07;;
27921;SDS011;15261;50.356;10.340;2024-03-06T01:59:16;15.38;;;12.70;;
27921;SDS011;15261;50.356;10.340;2024-03-06T02:23:21;18.85;;;14.68;;
27921;SDS011;15261;50.356;10.340;2024-03-06T02:25:47;19.25;;;14.57;;
27921;SDS011;15261;50.356;10.340;2024-03-06T02:28:13;20.00;;;13.95;;
27921;SDS011;15261;50.356;10.340;2024-03-06T02:30:39;17.75;;;13.55;;
27921;SDS011;15261;50.356;10.340;2024-03-06T02:33:05;18.08;;;13.25;;
27921;SDS011;15261;50.356;10.340;2024-03-06T02:35:31;19.77;;;13.13;;
27921;SDS011;15261;50.356;10.340;2024-03-06T02:37:59;17.33;;;13.23;;
27921;SDS011;15261;50.356;10.340;2024-03-06T02:40:25;53.75;;;30.35;;
27921;SDS011;15261;50.356;10.340;2024-03-06T02:42:51;52.45;;;28.35;;
27921;SDS011;15261;50.356;10.340;2024-03-06T02:45:16;25.30;;;15.68;;
27921;SDS011;15261;50.356;10.340;2024-03-06T02:47:42;22.15;;;15.70;;
27921;SDS011;15261;50.356;10.340;2024-03-06T02:50:09;25.08;;;16.65;;
27921;SDS011;15261;50.356;10.340;2024-03-06T02:52:35;23.00;;;15.93;;
27921;SDS011;15261;50.356;10.340;2024-03-06T02:55:01;25.77;;;17.95;;
27921;SDS011;15261;50.356;10.340;2024-03-06T02:57:28;23.25;;;15.18;;
27921;SDS011;15261;50.356;10.340;2024-03-06T02:59:57;19.45;;;13.38;;
27921;SDS011;15261;50.356;10.340;2024-03-06T03:02:23;19.10;;;13.95;;
27921;SDS011;15261;50.356;10.340;2024-03-06T03:04:50;19.10;;;14.10;;
27921;SDS011;15261;50.356;10.340;2024-03-06T03:07:17;21.17;;;15.45;;
27921;SDS011;15261;50.356;10.340;2024-03-06T03:09:45;24.10;;;14.93;;
27921;SDS011;15261;50.356;10.340;2024-03-06T03:12:12;25.30;;;17.45;;
27921;SDS011;15261;50.356;10.340;2024-03-06T03:14:37;21.67;;;15.85;;
27921;SDS011;15261;50.356;10.340;2024-03-06T03:17:05;23.30;;;16.98;;
27921;SDS011;15261;50.356;10.340;2024-03-06T03:19:31;23.80;;;16.80;;
27921;SDS011;15261;50.356;10.340;2024-03-06T03:21:56;22.00;;;15.60;;
27921;SDS011;15261;50.356;10.340;2024-03-06T03:24:23;22.45;;;15.18;;
27921;SDS011;15261;50.356;10.340;2024-03-06T03:26:50;18.67;;;13.77;;
27921;SDS011;15261;50.356;10.340;2024-03-06T03:29:16;19.20;;;14.90;;
27921;SDS011;15261;50.356;10.340;2024-03-06T03:31:43;18.95;;;14.90;;
27921;SDS011;15261;50.356;10.340;2024-03-06T03:34:08;22.60;;;15.50;;
27921;SDS011;15261;50.356;10.340;2024-03-06T03:36:39;19.27;;;14.27;;
27921;SDS011;15261;50.356;10.340;2024-03-06T03:39:05;20.42;;;15.48;;
27921;SDS011;15261;50.356;10.340;2024-03-06T03:41:31;21.20;;;16.08;;
27921;SDS011;15261;50.356;10.340;2024-03-06T03:43:56;20.90;;;15.20;;
27921;SDS011;15261;50.356;10.340;2024-03-06T03:46:23;21.50;;;15.57;;
27921;SDS011;15261;50.356;10.340;2024-03-06T03:48:49;21.15;;;15.95;;
27921;SDS011;15261;50.356;10.340;2024-03-06T03:51:15;21.05;;;16.02;;
27921;SDS011;15261;50.356;10.340;2024-03-06T03:53:41;22.50;;;16.60;;
27921;SDS011;15261;50.356;10.340;2024-03-06T03:56:07;22.65;;;17.75;;
27921;SDS011;15261;50.356;10.340;2024-03-06T03:58:32;23.13;;;17.38;;
27921;SDS011;15261;50.356;10.340;2024-03-06T04:00:58;20.90;;;17.27;;
27921;SDS011;15261;50.356;10.340;2024-03-06T04:03:24;22.40;;;17.25;;
27921;SDS011;15261;50.356;10.340;2024-03-06T04:05:49;21.42;;;16.48;;
27921;SDS011;15261;50.356;10.340;2024-03-06T04:08:15;23.20;;;17.35;;
27921;SDS011;15261;50.356;10.340;2024-03-06T04:10:43;22.05;;;16.80;;
27921;SDS011;15261;50.356;10.340;2024-03-06T04:13:12;23.00;;;17.33;;
27921;SDS011;15261;50.356;10.340;2024-03-06T04:15:39;23.00;;;17.20;;
27921;SDS011;15261;50.356;10.340;2024-03-06T04:18:05;22.02;;;17.60;;
27921;SDS011;15261;50.356;10.340;2024-03-06T04:20:30;23.65;;;17.55;;
27921;SDS011;15261;50.356;10.340;2024-03-06T04:22:56;24.13;;;18.23;;
27921;SDS011;15261;50.356;10.340;2024-03-06T04:25:24;19.27;;;16.30;;
27921;SDS011;15261;50.356;10.340;2024-03-06T04:27:50;20.63;;;17.70;;
27921;SDS011;15261;50.356;10.340;2024-03-06T04:30:16;20.80;;;16.95;;
27921;SDS011;15261;50.356;10.340;2024-03-06T04:32:41;21.17;;;16.88;;
27921;SDS011;15261;50.356;10.340;2024-03-06T04:35:07;22.35;;;17.77;;
27921;SDS011;15261;50.356;10.340;2024-03-06T04:37:34;21.92;;;17.55;;
27921;SDS011;15261;50.356;10.340;2024-03-06T04:40:00;21.50;;;17.38;;
27921;SDS011;15261;50.356;10.340;2024-03-06T04:42:28;19.80;;;16.63;;
27921;SDS011;15261;50.356;10.340;2024-03-06T04:44:54;22.10;;;17.48;;
27921;SDS011;15261;50.356;10.340;2024-03-06T04:47:20;20.27;;;17.02;;
27921;SDS011;15261;50.356;10.340;2024-03-06T04:49:45;19.65;;;15.77;;
27921;SDS011;15261;50.356;10.340;2024-03-06T04:52:11;19.88;;;16.08;;
27921;SDS011;15261;50.356;10.340;2024-03-06T04:54:37;19.67;;;16.17;;
27921;SDS011;15261;50.356;10.340;2024-03-06T04:57:05;19.13;;;16.00;;
27921;SDS011;15261;50.356;10.340;2024-03-06T04:59:31;20.65;;;16.60;;
27921;SDS011;15261;50.356;10.340;2024-03-06T05:01:56;19.88;;;16.80;;
27921;SDS011;15261;50.356;10.340;2024-03-06T05:04:22;19.52;;;16.77;;
27921;SDS011;15261;50.356;10.340;2024-03-06T05:06:47;19.08;;;16.45;;
27921;SDS011;15261;50.356;10.340;2024-03-06T05:09:13;21.48;;;17.38;;
27921;SDS011;15261;50.356;10.340;2024-03-06T05:11:39;19.02;;;16.13;;
27921;SDS011;15261;50.356;10.340;2024-03-06T05:14:05;19.60;;;15.90;;
27921;SDS011;15261;50.356;10.340;2024-03-06T05:16:31;20.08;;;16.33;;
27921;SDS011;15261;50.356;10.340;2024-03-06T05:18:56;20.95;;;16.55;;
27921;SDS011;15261;50.356;10.340;2024-03-06T05:21:22;18.92;;;15.30;;
27921;SDS011;15261;50.356;10.340;2024-03-06T05:23:50;18.92;;;14.98;;
27921;SDS011;15261;50.356;10.340;2024-03-06T05:26:17;18.67;;;15.60;;
27921;SDS011;15261;50.356;10.340;2024-03-06T05:28:43;20.95;;;16.67;;
27921;SDS011;15261;50.356;10.340;2024-03-06T05:31:18;20.95;;;16.75;;
27921;SDS011;15261;50.356;10.340;2024-03-06T05:33:46;20.52;;;16.52;;
27921;SDS011;15261;50.356;10.340;2024-03-06T05:36:12;21.42;;;16.80;;
27921;SDS011;15261;50.356;10.340;2024-03-06T05:38:38;20.70;;;16.10;;
27921;SDS011;15261;50.356;10.340;2024-03-06T05:41:04;23.60;;;19.70;;
27921;SDS011;15261;50.356;10.340;2024-03-06T05:43:29;23.65;;;19.17;;
27921;SDS011;15261;50.356;10.340;2024-03-06T05:45:55;21.83;;;17.70;;
27921;SDS011;15261;50.356;10.340;2024-03-06T05:51:22;21.48;;;17.63;;
27921;SDS011;15261;50.356;10.340;2024-03-06T05:53:47;22.90;;;17.25;;
27921;SDS011;15261;50.356;10.340;2024-03-06T05:56:13;20.63;;;16.95;;
27921;SDS011;15261;50.356;10.340;2024-03-06T05:58:38;21.83;;;19.40;;
27921;SDS011;15261;50.356;10.340;2024-03-06T06:01:04;21.92;;;19.42;;
27921;SDS011;15261;50.356;10.340;2024-03-06T06:03:30;22.60;;;18.70;;
27921;SDS011;15261;50.356;10.340;2024-03-06T06:05:55;25.85;;;18.63;;
27921;SDS011;15261;50.356;10.340;2024-03-06T06:08:21;20.45;;;17.85;;
27921;SDS011;15261;50.356;10.340;2024-03-06T06:10:47;21.90;;;17.92;;
27921;SDS011;15261;50.356;10.340;2024-03-06T06:13:13;21.38;;;17.48;;
27921;SDS011;15261;50.356;10.340;2024-03-06T06:15:39;21.25;;;17.88;;
27921;SDS011;15261;50.356;10.340;2024-03-06T06:18:05;22.23;;;18.55;;
27921;SDS011;15261;50.356;10.340;2024-03-06T06:20:30;28.23;;;22.63;;
27921;SDS011;15261;50.356;10.340;2024-03-06T06:22:56;31.00;;;23.88;;
27921;SDS011;15261;50.356;10.340;2024-03-06T06:25:26;36.30;;;24.73;;
27921;SDS011;15261;50.356;10.340;2024-03-06T06:27:52;30.92;;;22.75;;
27921;SDS011;15261;50.356;10.340;2024-03-06T06:30:17;37.95;;;26.35;;
27921;SDS011;15261;50.356;10.340;2024-03-06T06:32:43;33.67;;;24.35;;
27921;SDS011;15261;50.356;10.340;2024-03-06T06:35:09;28.83;;;22.00;;
27921;SDS011;15261;50.356;10.340;2024-03-06T06:37:36;23.25;;;19.40;;
27921;SDS011;15261;50.356;10.340;2024-03-06T06:40:02;22.85;;;19.52;;
27921;SDS011;15261;50.356;10.340;2024-03-06T06:42:32;22.42;;;20.00;;
27921;SDS011;15261;50.356;10.340;2024-03-06T06:45:18;23.60;;;19.45;;
27921;SDS011;15261;50.356;10.340;2024-03-06T06:47:44;24.10;;;19.67;;
27921;SDS011;15261;50.356;10.340;2024-03-06T06:50:10;23.13;;;19.08;;
27921;SDS011;15261;50.356;10.340;2024-03-06T06:52:36;23.30;;;20.35;;
27921;SDS011;15261;50.356;10.340;2024-03-06T06:55:03;22.15;;;19.50;;
27921;SDS011;15261;50.356;10.340;2024-03-06T06:57:29;23.00;;;20.40;;
27921;SDS011;15261;50.356;10.340;2024-03-06T06:59:55;25.27;;;20.58;;
27921;SDS011;15261;50.356;10.340;2024-03-06T07:02:20;21.98;;;19.02;;
27921;SDS011;15261;50.356;10.340;2024-03-06T07:04:46;22.85;;;19.77;;
27921;SDS011;15261;50.356;10.340;2024-03-06T07:07:13;23.48;;;20.05;;
27921;SDS011;15261;50.356;10.340;2024-03-06T07:09:39;21.83;;;19.42;;
27921;SDS011;15261;50.356;10.340;2024-03-06T07:12:05;22.45;;;19.55;;
27921;SDS011;15261;50.356;10.340;2024-03-06T07:14:31;23.10;;;19.30;;
27921;SDS011;15261;50.356;10.340;2024-03-06T07:16:56;21.27;;;18.58;;
27921;SDS011;15261;50.356;10.340;2024-03-06T07:19:22;24.67;;;20.40;;
27921;SDS011;15261;50.356;10.340;2024-03-06T07:21:48;21.70;;;18.85;;
27921;SDS011;15261;50.356;10.340;2024-03-06T07:24:13;22.00;;;19.15;;
27921;SDS011;15261;50.356;10.340;2024-03-06T07:26:39;21.85;;;19.13;;
27921;SDS011;15261;50.356;10.340;2024-03-06T07:29:04;21.05;;;18.85;;
27921;SDS011;15261;50.356;10.340;2024-03-06T07:31:37;22.60;;;19.48;;
27921;SDS011;15261;50.356;10.340;2024-03-06T07:34:04;23.20;;;19.58;;
27921;SDS011;15261;50.356;10.340;2024-03-06T07:36:33;22.17;;;19.63;;
27921;SDS011;15261;50.356;10.340;2024-03-06T07:38:59;23.85;;;19.60;;
27921;SDS011;15261;50.356;10.340;2024-03-06T07:41:25;21.65;;;19.33;;
27921;SDS011;15261;50.356;10.340;2024-03-06T07:43:51;22.33;;;19.92;;
27921;SDS011;15261;50.356;10.340;2024-03-06T07:46:16;21.02;;;18.73;;
27921;SDS011;15261;50.356;10.340;2024-03-06T07:48:42;23.00;;;20.10;;
27921;SDS011;15261;50.356;10.340;2024-03-06T07:51:11;23.55;;;19.80;;
27921;SDS011;15261;50.356;10.340;2024-03-06T07:53:36;27.13;;;18.90;;
27921;SDS011;15261;50.356;10.340;2024-03-06T07:56:02;23.10;;;19.80;;
27921;SDS011;15261;50.356;10.340;2024-03-06T07:58:28;20.70;;;18.50;;
27921;SDS011;15261;50.356;10.340;2024-03-06T08:00:54;22.23;;;19.00;;
27921;SDS011;15261;50.356;10.340;2024-03-06T08:03:21;22.55;;;19.35;;
27921;SDS011;15261;50.356;10.340;2024-03-06T08:05:53;21.33;;;19.00;;
27921;SDS011;15261;50.356;10.340;2024-03-06T08:08:19;22.95;;;20.25;;
27921;SDS011;15261;50.356;10.340;2024-03-06T08:10:45;23.20;;;19.40;;
27921;SDS011;15261;50.356;10.340;2024-03-06T08:13:11;22.77;;;19.70;;
27921;SDS011;15261;50.356;10.340;2024-03-06T08:15:36;22.73;;;19.85;;
27921;SDS011;15261;50.356;10.340;2024-03-06T08:18:02;21.48;;;18.85;;
27921;SDS011;15261;50.356;10.340;2024-03-06T08:20:30;22.50;;;20.08;;
27921;SDS011;15261;50.356;10.340;2024-03-06T08:22:56;21.20;;;18.77;;
27921;SDS011;15261;50.356;10.340;2024-03-06T08:25:21;21.92;;;19.55;;
27921;SDS011;15261;50.356;10.340;2024-03-06T08:27:47;23.05;;;19.23;;
27921;SDS011;15261;50.356;10.340;2024-03-06T08:30:13;22.88;;;20.33;;
27921;SDS011;15261;50.356;10.340;2024-03-06T08:32:39;23.30;;;20.80;;
27921;SDS011;15261;50.356;10.340;2024-03-06T08:35:05;22.33;;;19.95;;
27921;SDS011;15261;50.356;10.340;2024-03-06T08:37:31;22.92;;;19.02;;
27921;SDS011;15261;50.356;10.340;2024-03-06T08:39:58;21.13;;;18.02;;
27921;SDS011;15261;50.356;10.340;2024-03-06T08:42:25;21.20;;;19.00;;
27921;SDS011;15261;50.356;10.340;2024-03-06T08:44:50;20.90;;;18.70;;
27921;SDS011;15261;50.356;10.340;2024-03-06T08:47:16;24.20;;;19.70;;
27921;SDS011;15261;50.356;10.340;2024-03-06T08:49:42;21.83;;;19.50;;
27921;SDS011;15261;50.356;10.340;2024-03-06T08:52:07;23.05;;;20.33;;
27921;SDS011;15261;50.356;10.340;2024-03-06T08:54:34;22.88;;;19.55;;
27921;SDS011;15261;50.356;10.340;2024-03-06T08:57:03;20.90;;;18.52;;
27921;SDS011;15261;50.356;10.340;2024-03-06T08:59:29;21.42;;;19.15;;
27921;SDS011;15261;50.356;10.340;2024-03-06T09:01:55;20.42;;;18.42;;
27921;SDS011;15261;50.356;10.340;2024-03-06T09:04:21;23.38;;;18.92;;
27921;SDS011;15261;50.356;10.340;2024-03-06T09:06:47;20.02;;;17.92;;
27921;SDS011;15261;50.356;10.340;2024-03-06T09:09:14;20.45;;;18.25;;
27921;SDS011;15261;50.356;10.340;2024-03-06T09:11:43;20.83;;;18.58;;
27921;SDS011;15261;50.356;10.340;2024-03-06T09:14:09;21.17;;;18.38;;
27921;SDS011;15261;50.356;10.340;2024-03-06T09:16:35;20.88;;;18.42;;
27921;SDS011;15261;50.356;10.340;2024-03-06T09:19:00;19.70;;;17.60;;
27921;SDS011;15261;50.356;10.340;2024-03-06T09:21:27;21.20;;;17.85;;
27921;SDS011;15261;50.356;10.340;2024-03-06T09:23:53;21.08;;;18.88;;
27921;SDS011;15261;50.356;10.340;2024-03-06T09:26:18;22.52;;;18.48;;
27921;SDS011;15261;50.356;10.340;2024-03-06T09:28:45;20.98;;;18.67;;
27921;SDS011;15261;50.356;10.340;2024-03-06T09:31:11;20.75;;;18.55;;
27921;SDS011;15261;50.356;10.340;2024-03-06T09:33:38;20.30;;;18.20;;
27921;SDS011;15261;50.356;10.340;2024-03-06T09:36:04;20.60;;;18.50;;
27921;SDS011;15261;50.356;10.340;2024-03-06T09:38:30;20.77;;;18.63;;
27921;SDS011;15261;50.356;10.340;2024-03-06T09:40:56;23.83;;;19.08;;
27921;SDS011;15261;50.356;10.340;2024-03-06T09:43:22;21.35;;;19.13;;
27921;SDS011;15261;50.356;10.340;2024-03-06T09:45:49;19.95;;;17.52;;
27921;SDS011;15261;50.356;10.340;2024-03-06T09:48:16;22.08;;;18.42;;
27921;SDS011;15261;50.356;10.340;2024-03-06T09:50:45;21.55;;;18.73;;
27921;SDS011;15261;50.356;10.340;2024-03-06T09:53:15;23.00;;;19.02;;
27921;SDS011;15261;50.356;10.340;2024-03-06T09:55:41;21.02;;;18.48;;
27921;SDS011;15261;50.356;10.340;2024-03-06T09:58:07;21.67;;;18.85;;
27921;SDS011;15261;50.356;10.340;2024-03-06T10:00:36;21.20;;;18.67;;
27921;SDS011;15261;50.356;10.340;2024-03-06T10:03:03;19.15;;;17.25;;
27921;SDS011;15261;50.356;10.340;2024-03-06T10:05:33;20.80;;;18.52;;
27921;SDS011;15261;50.356;10.340;2024-03-06T10:08:04;20.67;;;18.35;;
27921;SDS011;15261;50.356;10.340;2024-03-06T10:10:30;21.02;;;18.83;;
27921;SDS011;15261;50.356;10.340;2024-03-06T10:12:56;20.35;;;18.25;;
27921;SDS011;15261;50.356;10.340;2024-03-06T10:15:22;20.27;;;18.05;;
27921;SDS011;15261;50.356;10.340;2024-03-06T10:17:48;21.98;;;19.67;;
27921;SDS011;15261;50.356;10.340;2024-03-06T10:20:19;21.88;;;19.55;;
27921;SDS011;15261;50.356;10.340;2024-03-06T10:22:49;21.02;;;18.83;;
27921;SDS011;15261;50.356;10.340;2024-03-06T10:25:25;21.75;;;19.33;;
27921;SDS011;15261;50.356;10.340;2024-03-06T10:28:05;19.88;;;17.70;;
27921;SDS011;15261;50.356;10.340;2024-03-06T10:30:35;22.05;;;18.80;;
27921;SDS011;15261;50.356;10.340;2024-03-06T10:33:02;21.10;;;18.77;;
27921;SDS011;15261;50.356;10.340;2024-03-06T10:35:29;21.05;;;17.88;;
27921;SDS011;15261;50.356;10.340;2024-03-06T10:37:54;22.05;;;19.13;;
27921;SDS011;15261;50.356;10.340;2024-03-06T10:40:21;24.33;;;19.60;;
27921;SDS011;15261;50.356;10.340;2024-03-06T10:42:48;24.35;;;19.77;;
27921;SDS011;15261;50.356;10.340;2024-03-06T10:45:14;20.65;;;17.80;;
27921;SDS011;15261;50.356;10.340;2024-03-06T10:47:45;21.65;;;18.40;;
27921;SDS011;15261;50.356;10.340;2024-03-06T10:50:14;22.38;;;19.30;;
27921;SDS011;15261;50.356;10.340;2024-03-06T10:52:40;21.92;;;17.92;;
27921;SDS011;15261;50.356;10.340;2024-03-06T10:55:08;20.38;;;18.17;;
27921;SDS011;15261;50.356;10.340;2024-03-06T10:57:35;23.80;;;19.23;;
27921;SDS011;15261;50.356;10.340;2024-03-06T11:00:02;24.70;;;19.98;;
27921;SDS011;15261;50.356;10.340;2024-03-06T11:02:27;24.27;;;19.70;;
27921;SDS011;15261;50.356;10.340;2024-03-06T11:04:54;25.25;;;19.38;;
27921;SDS011;15261;50.356;10.340;2024-03-06T11:07:22;25.35;;;19.73;;
27921;SDS011;15261;50.356;10.340;2024-03-06T11:09:48;21.88;;;18.50;;
27921;SDS011;15261;50.356;10.340;2024-03-06T11:12:31;23.92;;;19.98;;
27921;SDS011;15261;50.356;10.340;2024-03-06T11:15:08;23.95;;;19.65;;
27921;SDS011;15261;50.356;10.340;2024-03-06T11:17:45;22.05;;;18.90;;
27921;SDS011;15261;50.356;10.340;2024-03-06T11:20:18;23.45;;;18.80;;
27921;SDS011;15261;50.356;10.340;2024-03-06T11:28:17;21.30;;;18.38;;
27921;SDS011;15261;50.356;10.340;2024-03-06T11:33:36;22.83;;;18.08;;
27921;SDS011;15261;50.356;10.340;2024-03-06T11:44:07;28.30;;;20.30;;
27921;SDS011;15261;50.356;10.340;2024-03-06T11:49:16;20.40;;;16.95;;
27921;SDS011;15261;50.356;10.340;2024-03-06T11:51:51;20.70;;;17.10;;
27921;SDS011;15261;50.356;10.340;2024-03-06T11:54:18;35.72;;;27.35;;
27921;SDS011;15261;50.356;10.340;2024-03-06T11:56:48;27.52;;;22.45;;
27921;SDS011;15261;50.356;10.340;2024-03-06T11:59:16;42.25;;;31.25;;
27921;SDS011;15261;50.356;10.340;2024-03-06T12:01:42;32.78;;;23.67;;
27921;SDS011;15261;50.356;10.340;2024-03-06T12:04:09;28.67;;;23.10;;
27921;SDS011;15261;50.356;10.340;2024-03-06T12:06:35;23.70;;;18.88;;
27921;SDS011;15261;50.356;10.340;2024-03-06T12:09:02;23.70;;;18.08;;
27921;SDS011;15261;50.356;10.340;2024-03-06T12:11:29;27.40;;;21.20;;
27921;SDS011;15261;50.356;10.340;2024-03-06T12:13:56;24.13;;;18.30;;
27921;SDS011;15261;50.356;10.340;2024-03-06T12:16:22;23.48;;;19.33;;
27921;SDS011;15261;50.356;10.340;2024-03-06T12:18:55;29.05;;;23.23;;
27921;SDS011;15261;50.356;10.340;2024-03-06T12:21:27;27.25;;;21.08;;
27921;SDS011;15261;50.356;10.340;2024-03-06T12:24:09;26.20;;;20.35;;
27921;SDS011;15261;50.356;10.340;2024-03-06T12:26:36;26.55;;;21.05;;
27921;SDS011;15261;50.356;10.340;2024-03-06T12:29:05;27.38;;;22.17;;
27921;SDS011;15261;50.356;10.340;2024-03-06T12:31:36;26.92;;;19.85;;
27921;SDS011;15261;50.356;10.340;2024-03-06T12:34:03;23.33;;;19.92;;
27921;SDS011;15261;50.356;10.340;2024-03-06T12:36:29;26.50;;;21.10;;
27921;SDS011;15261;50.356;10.340;2024-03-06T12:38:58;28.70;;;22.33;;
27921;SDS011;15261;50.356;10.340;2024-03-06T12:41:24;28.42;;;21.73;;
27921;SDS011;15261;50.356;10.340;2024-03-06T12:43:51;25.60;;;21.27;;
27921;SDS011;15261;50.356;10.340;2024-03-06T12:46:18;29.38;;;22.90;;
27921;SDS011;15261;50.356;10.340;2024-03-06T12:48:44;26.88;;;20.92;;
27921;SDS011;15261;50.356;10.340;2024-03-06T12:51:11;26.05;;;20.70;;
27921;SDS011;15261;50.356;10.340;2024-03-06T12:53:37;27.67;;;21.77;;
27921;SDS011;15261;50.356;10.340;2024-03-06T12:56:03;27.30;;;22.60;;
27921;SDS011;15261;50.356;10.340;2024-03-06T12:58:29;29.98;;;23.10;;
27921;SDS011;15261;50.356;10.340;2024-03-06T13:01:00;27.33;;;22.20;;
27921;SDS011;15261;50.356;10.340;2024-03-06T13:03:26;26.02;;;21.95;;
27921;SDS011;15261;50.356;10.340;2024-03-06T13:05:52;28.65;;;22.25;;
27921;SDS011;15261;50.356;10.340;2024-03-06T13:08:18;26.50;;;22.13;;
27921;SDS011;15261;50.356;10.340;2024-03-06T13:10:44;25.42;;;22.08;;
27921;SDS011;15261;50.356;10.340;2024-03-06T13:13:10;28.98;;;23.50;;
27921;SDS011;15261;50.356;10.340;2024-03-06T13:15:35;30.77;;;24.85;;
27921;SDS011;15261;50.356;10.340;2024-03-06T13:18:04;30.60;;;25.17;;
27921;SDS011;15261;50.356;10.340;2024-03-06T13:20:30;30.73;;;23.88;;
27921;SDS011;15261;50.356;10.340;2024-03-06T13:22:56;31.17;;;22.42;;
27921;SDS011;15261;50.356;10.340;2024-03-06T13:25:22;27.85;;;22.17;;
27921;SDS011;15261;50.356;10.340;2024-03-06T13:27:47;27.83;;;22.55;;
27921;SDS011;15261;50.356;10.340;2024-03-06T13:30:15;25.80;;;21.70;;
27921;SDS011;15261;50.356;10.340;2024-03-06T13:32:41;27.27;;;22.67;;
27921;SDS011;15261;50.356;10.340;2024-03-06T13:35:13;25.65;;;22.15;;
27921;SDS011;15261;50.356;10.340;2024-03-06T13:37:39;26.80;;;21.88;;
27921;SDS011;15261;50.356;10.340;2024-03-06T13:40:06;25.38;;;20.83;;
27921;SDS011;15261;50.356;10.340;2024-03-06T13:42:34;24.08;;;20.33;;
27921;SDS011;15261;50.356;10.340;2024-03-06T13:45:00;23.77;;;20.92;;
27921;SDS011;15261;50.356;10.340;2024-03-06T13:47:27;25.77;;;22.65;;
27921;SDS011;15261;50.356;10.340;2024-03-06T13:50:16;26.98;;;22.17;;
27921;SDS011;15261;50.356;10.340;2024-03-06T13:52:44;27.95;;;22.15;;
27921;SDS011;15261;50.356;10.340;2024-03-06T13:55:13;26.35;;;22.55;;
27921;SDS011;15261;50.356;10.340;2024-03-06T13:57:39;25.23;;;21.27;;
27921;SDS011;15261;50.356;10.340;2024-03-06T14:00:15;25.48;;;20.67;;
27921;SDS011;15261;50.356;10.340;2024-03-06T14:02:49;23.45;;;19.08;;
27921;SDS011;15261;50.356;10.340;2024-03-06T14:05:33;23.77;;;20.48;;
27921;SDS011;15261;50.356;10.340;2024-03-06T14:07:59;25.92;;;20.63;;
27921;SDS011;15261;50.356;10.340;2024-03-06T14:10:27;28.10;;;21.77;;
27921;SDS011;15261;50.356;10.340;2024-03-06T14:13:01;24.40;;;21.02;;
27921;SDS011;15261;50.356;10.340;2024-03-06T14:15:31;24.58;;;21.45;;
27921;SDS011;15261;50.356;10.340;2024-03-06T14:18:03;24.10;;;21.25;;
27921;SDS011;15261;50.356;10.340;2024-03-06T14:20:29;26.63;;;21.90;;
27921;SDS011;15261;50.356;10.340;2024-03-06T14:22:55;27.60;;;22.83;;
27921;SDS011;15261;50.356;10.340;2024-03-06T14:25:20;28.52;;;23.60;;
27921;SDS011;15261;50.356;10.340;2024-03-06T14:27:46;28.55;;;22.77;;
27921;SDS011;15261;50.356;10.340;2024-03-06T14:30:25;26.23;;;23.20;;
27921;SDS011;15261;50.356;10.340;2024-03-06T14:32:50;27.33;;;23.80;;
27921;SDS011;15261;50.356;10.340;2024-03-06T14:38:38;34.38;;;25.45;;
27921;SDS011;15261;50.356;10.340;2024-03-06T14:41:03;31.52;;;26.35;;
27921;SDS011;15261;50.356;10.340;2024-03-06T14:43:31;30.20;;;24.88;;
27921;SDS011;15261;50.356;10.340;2024-03-06T14:45:59;32.83;;;24.77;;
27921;SDS011;15261;50.356;10.340;2024-03-06T14:48:25;32.05;;;25.55;;
27921;SDS011;15261;50.356;10.340;2024-03-06T14:50:51;34.30;;;27.92;;
27921;SDS011;15261;50.356;10.340;2024-03-06T14:53:16;35.10;;;27.70;;
27921;SDS011;15261;50.356;10.340;2024-03-06T14:58:57;34.38;;;27.05;;
27921;SDS011;15261;50.356;10.340;2024-03-06T15:01:23;31.75;;;25.45;;
27921;SDS011;15261;50.356;10.340;2024-03-06T15:03:50;32.50;;;26.45;;
27921;SDS011;15261;50.356;10.340;2024-03-06T15:06:16;34.00;;;27.58;;
27921;SDS011;15261;50.356;10.340;2024-03-06T15:08:48;35.88;;;28.55;;
27921;SDS011;15261;50.356;10.340;2024-03-06T15:11:14;34.42;;;26.65;;